sensor_id;sensor_type;location;lat;lon;timestamp;temperature;humidity
21627;DHT22;10975;47.872;12.972;2023-03-08T00:01:16;3.70;99.90
21627;DHT22;10975;47.872;12.972;2023-03-08T00:03:44;3.70;99.90
21627;DHT22;10975;47.872;12.972;2023-03-08T00:06:12;3.80;99.90
21627;DHT22;10975;47.872;12.972;2023-03-08T00:08:39;3.80;99.90
21627;DHT22;10975;47.872;12.972;2023-03-08T00:11:07;3.70;99.90
21627;DHT22;10975;47.872;12.972;2023-03-08T00:13:34;3.70;99.90
21627;DHT22;10975;47.872;12.972;2023-03-08T00:16:01;3.80;99.90
21627;DHT22;10975;47.872;12.972;2023-03-08T00:18:29;3.80;99.90
21627;DHT22;10975;47.872;12.972;2023-03-08T00:20:59;3.80;99.90
21627;DHT22;10975;47.872;12.972;2023-03-08T00:23:26;3.80;99.90
21627;DHT22;10975;47.872;12.972;2023-03-08T00:25:53;3.80;99.90
21627;DHT22;10975;47.872;12.972;2023-03-08T00:28:20;3.80;99.90
21627;DHT22;10975;47.872;12.972;2023-03-08T00:30:57;3.80;99.90
21627;DHT22;10975;47.872;12.972;2023-03-08T00:33:24;3.90;99.90
21627;DHT22;10975;47.872;12.972;2023-03-08T00:35:58;3.90;99.90
21627;DHT22;10975;47.872;12.972;2023-03-08T00:38:26;3.80;99.90
21627;DHT22;10975;47.872;12.972;2023-03-08T00:40:53;3.80;99.90
21627;DHT22;10975;47.872;12.972;2023-03-08T00:43:19;3.80;99.90
21627;DHT22;10975;47.872;12.972;2023-03-08T00:45:46;3.80;99.90
21627;DHT22;10975;47.872;12.972;2023-03-08T00:48:18;3.80;99.90
21627;DHT22;10975;47.872;12.972;2023-03-08T00:50:45;3.80;99.90
21627;DHT22;10975;47.872;12.972;2023-03-08T00:53:11;3.80;99.90
21627;DHT22;10975;47.872;12.972;2023-03-08T00:55:38;3.80;99.90
21627;DHT22;10975;47.872;12.972;2023-03-08T00:58:05;3.90;99.90
21627;DHT22;10975;47.872;12.972;2023-03-08T01:00:31;3.90;99.90
21627;DHT22;10975;47.872;12.972;2023-03-08T01:02:58;3.90;99.90
21627;DHT22;10975;47.872;12.972;2023-03-08T01:05:25;3.90;99.90
21627;DHT22;10975;47.872;12.972;2023-03-08T01:07:51;4.00;99.90
21627;DHT22;10975;47.872;12.972;2023-03-08T01:10:18;4.00;99.90
21627;DHT22;10975;47.872;12.972;2023-03-08T01:12:45;4.00;99.90
21627;DHT22;10975;47.872;12.972;2023-03-08T01:15:12;4.10;99.90
21627;DHT22;10975;47.872;12.972;2023-03-08T01:17:38;4.20;99.90
21627;DHT22;10975;47.872;12.972;2023-03-08T01:20:05;4.30;99.90
21627;DHT22;10975;47.872;12.972;2023-03-08T01:22:32;4.30;99.90
21627;DHT22;10975;47.872;12.972;2023-03-08T01:24:59;4.40;99.90
21627;DHT22;10975;47.872;12.972;2023-03-08T01:27:26;4.40;99.90
21627;DHT22;10975;47.872;12.972;2023-03-08T01:29:52;4.40;99.90
21627;DHT22;10975;47.872;12.972;2023-03-08T01:32:19;4.30;99.90
21627;DHT22;10975;47.872;12.972;2023-03-08T01:34:46;4.30;99.90
21627;DHT22;10975;47.872;12.972;2023-03-08T01:37:12;4.20;99.90
21627;DHT22;10975;47.872;12.972;2023-03-08T01:39:39;4.20;99.90
21627;DHT22;10975;47.872;12.972;2023-03-08T01:42:06;4.20;99.90
21627;DHT22;10975;47.872;12.972;2023-03-08T01:47:20;4.20;99.90
21627;DHT22;10975;47.872;12.972;2023-03-08T01:49:47;4.20;99.90
21627;DHT22;10975;47.872;12.972;2023-03-08T01:52:15;4.20;99.90
21627;DHT22;10975;47.872;12.972;2023-03-08T01:54:46;4.10;99.90
21627;DHT22;10975;47.872;12.972;2023-03-08T01:57:14;4.10;99.90
21627;DHT22;10975;47.872;12.972;2023-03-08T01:59:42;4.10;99.90
21627;DHT22;10975;47.872;12.972;2023-03-08T02:02:10;4.20;99.90
21627;DHT22;10975;47.872;12.972;2023-03-08T02:04:36;4.20;99.90
21627;DHT22;10975;47.872;12.972;2023-03-08T02:07:04;4.20;99.90
21627;DHT22;10975;47.872;12.972;2023-03-08T02:09:31;4.20;99.90
21627;DHT22;10975;47.872;12.972;2023-03-08T02:11:58;4.10;99.90
21627;DHT22;10975;47.872;12.972;2023-03-08T02:14:26;4.20;99.90
21627;DHT22;10975;47.872;12.972;2023-03-08T02:16:53;4.20;99.90
21627;DHT22;10975;47.872;12.972;2023-03-08T02:19:22;4.10;99.90
21627;DHT22;10975;47.872;12.972;2023-03-08T02:21:50;4.10;99.90
21627;DHT22;10975;47.872;12.972;2023-03-08T02:24:18;4.00;99.90
21627;DHT22;10975;47.872;12.972;2023-03-08T02:26:45;4.00;99.90
21627;DHT22;10975;47.872;12.972;2023-03-08T02:29:12;4.00;99.90
21627;DHT22;10975;47.872;12.972;2023-03-08T02:31:39;3.90;99.90
21627;DHT22;10975;47.872;12.972;2023-03-08T02:34:05;3.90;99.90
21627;DHT22;10975;47.872;12.972;2023-03-08T02:36:32;3.80;99.90
21627;DHT22;10975;47.872;12.972;2023-03-08T02:38:59;3.80;99.90
21627;DHT22;10975;47.872;12.972;2023-03-08T02:41:25;3.80;99.90
21627;DHT22;10975;47.872;12.972;2023-03-08T02:43:52;3.80;99.90
21627;DHT22;10975;47.872;12.972;2023-03-08T02:46:19;3.70;99.90
21627;DHT22;10975;47.872;12.972;2023-03-08T02:48:46;3.70;99.90
21627;DHT22;10975;47.872;12.972;2023-03-08T02:51:12;3.70;99.90
21627;DHT22;10975;47.872;12.972;2023-03-08T02:53:39;3.70;99.90
21627;DHT22;10975;47.872;12.972;2023-03-08T02:56:06;3.80;99.90
21627;DHT22;10975;47.872;12.972;2023-03-08T02:58:33;3.90;99.90
21627;DHT22;10975;47.872;12.972;2023-03-08T03:00:59;4.00;99.90
21627;DHT22;10975;47.872;12.972;2023-03-08T03:03:26;4.00;99.90
21627;DHT22;10975;47.872;12.972;2023-03-08T03:05:53;4.00;99.90
21627;DHT22;10975;47.872;12.972;2023-03-08T03:08:19;4.00;99.90
21627;DHT22;10975;47.872;12.972;2023-03-08T03:10:46;4.00;99.90
21627;DHT22;10975;47.872;12.972;2023-03-08T03:13:13;4.00;99.90
21627;DHT22;10975;47.872;12.972;2023-03-08T03:15:40;4.10;99.90
21627;DHT22;10975;47.872;12.972;2023-03-08T03:18:06;4.30;99.90
21627;DHT22;10975;47.872;12.972;2023-03-08T03:20:33;4.40;99.90
21627;DHT22;10975;47.872;12.972;2023-03-08T03:23:00;4.60;99.90
21627;DHT22;10975;47.872;12.972;2023-03-08T03:25:26;4.70;99.90
21627;DHT22;10975;47.872;12.972;2023-03-08T03:27:54;4.70;99.90
21627;DHT22;10975;47.872;12.972;2023-03-08T03:30:20;4.80;99.90
21627;DHT22;10975;47.872;12.972;2023-03-08T03:32:47;4.90;99.90
21627;DHT22;10975;47.872;12.972;2023-03-08T03:35:14;4.70;99.90
21627;DHT22;10975;47.872;12.972;2023-03-08T03:37:40;4.60;99.90
21627;DHT22;10975;47.872;12.972;2023-03-08T03:40:07;4.60;99.90
21627;DHT22;10975;47.872;12.972;2023-03-08T03:42:34;4.50;99.90
21627;DHT22;10975;47.872;12.972;2023-03-08T03:45:01;4.50;99.90
21627;DHT22;10975;47.872;12.972;2023-03-08T03:47:28;4.50;99.90
21627;DHT22;10975;47.872;12.972;2023-03-08T03:49:54;4.40;99.90
21627;DHT22;10975;47.872;12.972;2023-03-08T03:52:21;4.40;99.90
21627;DHT22;10975;47.872;12.972;2023-03-08T03:54:47;4.40;99.90
21627;DHT22;10975;47.872;12.972;2023-03-08T03:57:14;4.40;99.90
21627;DHT22;10975;47.872;12.972;2023-03-08T03:59:42;4.40;99.90
21627;DHT22;10975;47.872;12.972;2023-03-08T04:02:08;4.30;99.90
21627;DHT22;10975;47.872;12.972;2023-03-08T04:04:36;4.20;99.90
21627;DHT22;10975;47.872;12.972;2023-03-08T04:07:03;4.20;99.90
21627;DHT22;10975;47.872;12.972;2023-03-08T04:09:29;4.20;99.90
21627;DHT22;10975;47.872;12.972;2023-03-08T04:11:56;4.20;99.90
21627;DHT22;10975;47.872;12.972;2023-03-08T04:14:27;4.20;99.90
21627;DHT22;10975;47.872;12.972;2023-03-08T04:16:54;4.10;99.90
21627;DHT22;10975;47.872;12.972;2023-03-08T04:19:21;4.10;99.90
21627;DHT22;10975;47.872;12.972;2023-03-08T04:21:47;4.10;99.90
21627;DHT22;10975;47.872;12.972;2023-03-08T04:24:14;4.00;99.90
21627;DHT22;10975;47.872;12.972;2023-03-08T04:26:41;4.00;99.90
21627;DHT22;10975;47.872;12.972;2023-03-08T04:29:08;4.00;99.90
21627;DHT22;10975;47.872;12.972;2023-03-08T04:31:34;3.90;99.90
21627;DHT22;10975;47.872;12.972;2023-03-08T04:34:02;3.90;99.90
21627;DHT22;10975;47.872;12.972;2023-03-08T04:36:29;3.90;99.90
21627;DHT22;10975;47.872;12.972;2023-03-08T04:38:56;3.90;99.90
21627;DHT22;10975;47.872;12.972;2023-03-08T04:41:23;3.90;99.90
21627;DHT22;10975;47.872;12.972;2023-03-08T04:43:51;3.80;99.90
21627;DHT22;10975;47.872;12.972;2023-03-08T04:46:19;3.70;99.90
21627;DHT22;10975;47.872;12.972;2023-03-08T04:48:46;3.60;99.90
21627;DHT22;10975;47.872;12.972;2023-03-08T04:51:16;3.50;99.90
21627;DHT22;10975;47.872;12.972;2023-03-08T04:53:42;3.40;99.90
21627;DHT22;10975;47.872;12.972;2023-03-08T04:56:11;3.30;99.90
21627;DHT22;10975;47.872;12.972;2023-03-08T04:58:38;3.20;99.90
21627;DHT22;10975;47.872;12.972;2023-03-08T05:01:12;3.20;99.90
21627;DHT22;10975;47.872;12.972;2023-03-08T05:03:39;3.10;99.90
21627;DHT22;10975;47.872;12.972;2023-03-08T05:06:06;3.10;99.90
21627;DHT22;10975;47.872;12.972;2023-03-08T05:08:33;3.00;99.90
21627;DHT22;10975;47.872;12.972;2023-03-08T05:11:00;3.00;99.90
21627;DHT22;10975;47.872;12.972;2023-03-08T05:13:29;2.90;99.90
21627;DHT22;10975;47.872;12.972;2023-03-08T05:15:56;2.80;99.90
21627;DHT22;10975;47.872;12.972;2023-03-08T05:18:23;2.80;99.90
21627;DHT22;10975;47.872;12.972;2023-03-08T05:20:56;2.80;99.90
21627;DHT22;10975;47.872;12.972;2023-03-08T05:23:24;2.80;99.90
21627;DHT22;10975;47.872;12.972;2023-03-08T05:25:54;2.70;99.90
21627;DHT22;10975;47.872;12.972;2023-03-08T05:28:21;2.70;99.90
21627;DHT22;10975;47.872;12.972;2023-03-08T05:30:49;2.70;99.90
21627;DHT22;10975;47.872;12.972;2023-03-08T05:33:16;2.70;99.90
21627;DHT22;10975;47.872;12.972;2023-03-08T05:35:42;2.70;99.90
21627;DHT22;10975;47.872;12.972;2023-03-08T05:38:09;2.70;99.90
21627;DHT22;10975;47.872;12.972;2023-03-08T05:40:36;2.70;99.90
21627;DHT22;10975;47.872;12.972;2023-03-08T05:43:03;2.70;99.90
21627;DHT22;10975;47.872;12.972;2023-03-08T05:45:30;2.70;99.90
21627;DHT22;10975;47.872;12.972;2023-03-08T05:47:57;2.60;99.90
21627;DHT22;10975;47.872;12.972;2023-03-08T05:50:23;2.60;99.90
21627;DHT22;10975;47.872;12.972;2023-03-08T05:52:50;2.60;99.90
21627;DHT22;10975;47.872;12.972;2023-03-08T05:55:17;2.60;99.90
21627;DHT22;10975;47.872;12.972;2023-03-08T05:57:43;2.60;99.90
21627;DHT22;10975;47.872;12.972;2023-03-08T06:00:10;2.60;99.90
21627;DHT22;10975;47.872;12.972;2023-03-08T06:02:38;2.70;99.90
21627;DHT22;10975;47.872;12.972;2023-03-08T06:05:05;2.70;99.90
21627;DHT22;10975;47.872;12.972;2023-03-08T06:07:32;2.80;99.90
21627;DHT22;10975;47.872;12.972;2023-03-08T06:09:58;2.90;99.90
21627;DHT22;10975;47.872;12.972;2023-03-08T06:12:26;2.90;99.90
21627;DHT22;10975;47.872;12.972;2023-03-08T06:14:52;2.90;99.90
21627;DHT22;10975;47.872;12.972;2023-03-08T06:17:19;3.00;99.90
21627;DHT22;10975;47.872;12.972;2023-03-08T06:19:46;3.00;99.90
21627;DHT22;10975;47.872;12.972;2023-03-08T06:22:14;3.10;99.90
21627;DHT22;10975;47.872;12.972;2023-03-08T06:24:41;3.10;99.90
21627;DHT22;10975;47.872;12.972;2023-03-08T06:27:07;3.10;99.90
21627;DHT22;10975;47.872;12.972;2023-03-08T06:29:34;3.20;99.90
21627;DHT22;10975;47.872;12.972;2023-03-08T06:32:01;3.30;99.90
21627;DHT22;10975;47.872;12.972;2023-03-08T06:34:28;3.30;99.90
21627;DHT22;10975;47.872;12.972;2023-03-08T06:36:54;3.40;99.90
21627;DHT22;10975;47.872;12.972;2023-03-08T06:39:25;3.50;99.90
21627;DHT22;10975;47.872;12.972;2023-03-08T06:41:52;3.50;99.90
21627;DHT22;10975;47.872;12.972;2023-03-08T06:44:19;3.60;99.90
21627;DHT22;10975;47.872;12.972;2023-03-08T06:46:46;3.60;99.90
21627;DHT22;10975;47.872;12.972;2023-03-08T06:49:12;3.70;99.90
21627;DHT22;10975;47.872;12.972;2023-03-08T06:51:39;3.80;99.90
21627;DHT22;10975;47.872;12.972;2023-03-08T06:54:06;3.80;99.90
21627;DHT22;10975;47.872;12.972;2023-03-08T06:56:33;3.90;99.90
21627;DHT22;10975;47.872;12.972;2023-03-08T06:58:59;3.90;99.90
21627;DHT22;10975;47.872;12.972;2023-03-08T07:01:26;3.90;99.90
21627;DHT22;10975;47.872;12.972;2023-03-08T07:03:53;4.00;99.90
21627;DHT22;10975;47.872;12.972;2023-03-08T07:06:20;4.00;99.90
21627;DHT22;10975;47.872;12.972;2023-03-08T07:08:47;4.10;99.90
21627;DHT22;10975;47.872;12.972;2023-03-08T07:11:14;4.20;99.90
21627;DHT22;10975;47.872;12.972;2023-03-08T07:13:40;4.20;99.90
21627;DHT22;10975;47.872;12.972;2023-03-08T07:16:08;4.20;99.90
21627;DHT22;10975;47.872;12.972;2023-03-08T07:18:35;4.20;99.90
21627;DHT22;10975;47.872;12.972;2023-03-08T07:21:02;4.30;99.90
21627;DHT22;10975;47.872;12.972;2023-03-08T07:23:29;4.30;99.90
21627;DHT22;10975;47.872;12.972;2023-03-08T07:25:56;4.40;99.90
21627;DHT22;10975;47.872;12.972;2023-03-08T07:28:22;4.50;99.90
21627;DHT22;10975;47.872;12.972;2023-03-08T07:30:50;4.60;99.90
21627;DHT22;10975;47.872;12.972;2023-03-08T07:33:18;4.70;99.90
21627;DHT22;10975;47.872;12.972;2023-03-08T07:35:45;4.70;99.90
21627;DHT22;10975;47.872;12.972;2023-03-08T07:38:11;4.80;99.90
21627;DHT22;10975;47.872;12.972;2023-03-08T07:40:38;4.90;99.90
21627;DHT22;10975;47.872;12.972;2023-03-08T07:43:05;5.00;99.90
21627;DHT22;10975;47.872;12.972;2023-03-08T07:45:32;5.10;99.90
21627;DHT22;10975;47.872;12.972;2023-03-08T07:47:58;5.10;99.90
21627;DHT22;10975;47.872;12.972;2023-03-08T07:50:25;5.20;99.90
21627;DHT22;10975;47.872;12.972;2023-03-08T07:52:52;5.30;99.90
21627;DHT22;10975;47.872;12.972;2023-03-08T07:55:18;5.40;99.90
21627;DHT22;10975;47.872;12.972;2023-03-08T07:57:46;5.50;99.90
21627;DHT22;10975;47.872;12.972;2023-03-08T08:00:13;5.70;99.90
21627;DHT22;10975;47.872;12.972;2023-03-08T08:02:40;5.70;99.90
21627;DHT22;10975;47.872;12.972;2023-03-08T08:05:07;5.80;99.90
21627;DHT22;10975;47.872;12.972;2023-03-08T08:07:33;5.90;99.90
21627;DHT22;10975;47.872;12.972;2023-03-08T08:10:00;6.10;99.90
21627;DHT22;10975;47.872;12.972;2023-03-08T08:12:27;6.20;99.90
21627;DHT22;10975;47.872;12.972;2023-03-08T08:14:54;6.30;99.90
21627;DHT22;10975;47.872;12.972;2023-03-08T08:17:21;6.40;99.90
21627;DHT22;10975;47.872;12.972;2023-03-08T08:19:47;6.40;99.90
21627;DHT22;10975;47.872;12.972;2023-03-08T08:22:14;6.40;99.90
21627;DHT22;10975;47.872;12.972;2023-03-08T08:24:41;6.40;99.90
21627;DHT22;10975;47.872;12.972;2023-03-08T08:27:07;6.40;99.90
21627;DHT22;10975;47.872;12.972;2023-03-08T08:29:35;6.40;99.90
21627;DHT22;10975;47.872;12.972;2023-03-08T08:32:02;6.30;99.90
21627;DHT22;10975;47.872;12.972;2023-03-08T08:34:29;6.30;99.90
21627;DHT22;10975;47.872;12.972;2023-03-08T08:36:56;6.40;99.90
21627;DHT22;10975;47.872;12.972;2023-03-08T08:39:23;6.40;99.90
21627;DHT22;10975;47.872;12.972;2023-03-08T08:41:49;6.50;99.90
21627;DHT22;10975;47.872;12.972;2023-03-08T08:44:17;6.60;99.90
21627;DHT22;10975;47.872;12.972;2023-03-08T08:46:44;6.70;99.90
21627;DHT22;10975;47.872;12.972;2023-03-08T08:49:11;6.80;99.90
21627;DHT22;10975;47.872;12.972;2023-03-08T08:51:37;6.90;99.90
21627;DHT22;10975;47.872;12.972;2023-03-08T08:54:04;7.00;99.90
21627;DHT22;10975;47.872;12.972;2023-03-08T08:56:31;7.20;99.90
21627;DHT22;10975;47.872;12.972;2023-03-08T08:59:01;7.30;99.90
21627;DHT22;10975;47.872;12.972;2023-03-08T09:01:29;7.30;99.90
21627;DHT22;10975;47.872;12.972;2023-03-08T09:03:57;7.40;99.90
21627;DHT22;10975;47.872;12.972;2023-03-08T09:06:25;7.60;99.90
21627;DHT22;10975;47.872;12.972;2023-03-08T09:08:53;7.60;99.90
21627;DHT22;10975;47.872;12.972;2023-03-08T09:11:23;7.60;99.90
21627;DHT22;10975;47.872;12.972;2023-03-08T09:13:51;7.60;99.90
21627;DHT22;10975;47.872;12.972;2023-03-08T09:16:18;7.70;99.90
21627;DHT22;10975;47.872;12.972;2023-03-08T09:18:45;7.80;99.90
21627;DHT22;10975;47.872;12.972;2023-03-08T09:21:12;7.90;99.90
21627;DHT22;10975;47.872;12.972;2023-03-08T09:23:39;8.10;99.90
21627;DHT22;10975;47.872;12.972;2023-03-08T09:26:06;8.30;99.90
21627;DHT22;10975;47.872;12.972;2023-03-08T09:28:33;8.30;99.90
21627;DHT22;10975;47.872;12.972;2023-03-08T09:31:04;8.40;99.90
21627;DHT22;10975;47.872;12.972;2023-03-08T09:33:30;8.40;99.90
21627;DHT22;10975;47.872;12.972;2023-03-08T09:35:58;8.40;99.90
21627;DHT22;10975;47.872;12.972;2023-03-08T09:38:25;8.50;99.90
21627;DHT22;10975;47.872;12.972;2023-03-08T09:41:05;8.50;99.90
21627;DHT22;10975;47.872;12.972;2023-03-08T09:43:40;8.60;99.90
21627;DHT22;10975;47.872;12.972;2023-03-08T09:46:11;8.80;99.90
21627;DHT22;10975;47.872;12.972;2023-03-08T09:48:38;8.90;99.90
21627;DHT22;10975;47.872;12.972;2023-03-08T09:51:09;9.00;99.90
21627;DHT22;10975;47.872;12.972;2023-03-08T09:53:38;9.10;99.90
21627;DHT22;10975;47.872;12.972;2023-03-08T09:56:11;9.20;99.90
21627;DHT22;10975;47.872;12.972;2023-03-08T09:58:40;9.30;99.90
21627;DHT22;10975;47.872;12.972;2023-03-08T10:06:14;9.40;99.90
21627;DHT22;10975;47.872;12.972;2023-03-08T10:11:30;9.60;99.90
21627;DHT22;10975;47.872;12.972;2023-03-08T10:14:02;9.60;99.90
21627;DHT22;10975;47.872;12.972;2023-03-08T10:16:43;9.70;99.90
21627;DHT22;10975;47.872;12.972;2023-03-08T10:19:26;9.70;99.90
21627;DHT22;10975;47.872;12.972;2023-03-08T10:21:56;9.70;99.90
21627;DHT22;10975;47.872;12.972;2023-03-08T10:27:09;9.70;99.90
21627;DHT22;10975;47.872;12.972;2023-03-08T10:29:46;9.80;99.90
21627;DHT22;10975;47.872;12.972;2023-03-08T10:32:13;10.00;99.90
21627;DHT22;10975;47.872;12.972;2023-03-08T10:34:40;10.20;99.90
21627;DHT22;10975;47.872;12.972;2023-03-08T10:37:07;10.40;99.90
21627;DHT22;10975;47.872;12.972;2023-03-08T10:39:35;10.50;99.90
21627;DHT22;10975;47.872;12.972;2023-03-08T10:42:11;10.40;99.90
21627;DHT22;10975;47.872;12.972;2023-03-08T10:47:19;10.10;99.90
21627;DHT22;10975;47.872;12.972;2023-03-08T10:49:46;10.10;99.90
21627;DHT22;10975;47.872;12.972;2023-03-08T10:52:21;10.10;99.90
21627;DHT22;10975;47.872;12.972;2023-03-08T11:02:43;10.30;99.90
21627;DHT22;10975;47.872;12.972;2023-03-08T11:05:16;10.40;99.90
21627;DHT22;10975;47.872;12.972;2023-03-08T11:07:49;10.30;99.90
21627;DHT22;10975;47.872;12.972;2023-03-08T11:10:16;10.20;99.90
21627;DHT22;10975;47.872;12.972;2023-03-08T11:12:44;10.20;99.90
21627;DHT22;10975;47.872;12.972;2023-03-08T11:15:17;10.10;99.90
21627;DHT22;10975;47.872;12.972;2023-03-08T11:17:54;10.10;99.90
21627;DHT22;10975;47.872;12.972;2023-03-08T11:20:24;10.20;99.90
21627;DHT22;10975;47.872;12.972;2023-03-08T11:25:27;10.10;99.90
21627;DHT22;10975;47.872;12.972;2023-03-08T11:28:14;10.00;99.90
21627;DHT22;10975;47.872;12.972;2023-03-08T11:30:57;9.80;99.90
21627;DHT22;10975;47.872;12.972;2023-03-08T11:36:15;9.60;99.90
21627;DHT22;10975;47.872;12.972;2023-03-08T11:38:45;9.60;99.90
21627;DHT22;10975;47.872;12.972;2023-03-08T11:54:32;9.80;99.90
21627;DHT22;10975;47.872;12.972;2023-03-08T11:57:03;9.70;99.90
21627;DHT22;10975;47.872;12.972;2023-03-08T11:59:37;9.70;99.90
21627;DHT22;10975;47.872;12.972;2023-03-08T12:07:14;9.80;99.90
21627;DHT22;10975;47.872;12.972;2023-03-08T12:12:38;10.00;99.90
21627;DHT22;10975;47.872;12.972;2023-03-08T12:15:10;10.10;99.90
21627;DHT22;10975;47.872;12.972;2023-03-08T12:17:43;10.20;99.90
21627;DHT22;10975;47.872;12.972;2023-03-08T12:20:12;10.20;99.90
21627;DHT22;10975;47.872;12.972;2023-03-08T12:22:46;10.10;99.90
21627;DHT22;10975;47.872;12.972;2023-03-08T12:25:20;10.10;99.90
21627;DHT22;10975;47.872;12.972;2023-03-08T12:27:55;10.20;99.90
21627;DHT22;10975;47.872;12.972;2023-03-08T12:32:53;10.10;99.90
21627;DHT22;10975;47.872;12.972;2023-03-08T12:38:05;10.20;99.90
21627;DHT22;10975;47.872;12.972;2023-03-08T12:43:09;10.00;99.90
21627;DHT22;10975;47.872;12.972;2023-03-08T12:45:37;10.00;99.90
21627;DHT22;10975;47.872;12.972;2023-03-08T12:50:33;10.20;99.90
21627;DHT22;10975;47.872;12.972;2023-03-08T12:53:01;10.30;99.90
21627;DHT22;10975;47.872;12.972;2023-03-08T12:55:29;10.30;99.90
21627;DHT22;10975;47.872;12.972;2023-03-08T12:57:59;10.30;99.90
21627;DHT22;10975;47.872;12.972;2023-03-08T13:05:40;10.40;99.90
21627;DHT22;10975;47.872;12.972;2023-03-08T13:13:22;10.30;99.90
21627;DHT22;10975;47.872;12.972;2023-03-08T13:16:05;10.30;99.90
21627;DHT22;10975;47.872;12.972;2023-03-08T13:18:32;10.30;99.90
21627;DHT22;10975;47.872;12.972;2023-03-08T13:21:17;10.30;99.90
21627;DHT22;10975;47.872;12.972;2023-03-08T13:23:47;10.30;99.90
21627;DHT22;10975;47.872;12.972;2023-03-08T13:29:16;10.50;99.90
21627;DHT22;10975;47.872;12.972;2023-03-08T13:31:44;10.60;99.90
21627;DHT22;10975;47.872;12.972;2023-03-08T13:34:22;10.70;99.90
21627;DHT22;10975;47.872;12.972;2023-03-08T13:36:50;10.70;99.90
21627;DHT22;10975;47.872;12.972;2023-03-08T13:39:18;10.60;99.90
21627;DHT22;10975;47.872;12.972;2023-03-08T13:41:45;10.50;99.90
21627;DHT22;10975;47.872;12.972;2023-03-08T13:44:16;10.40;99.90
21627;DHT22;10975;47.872;12.972;2023-03-08T13:46:44;10.30;99.90
21627;DHT22;10975;47.872;12.972;2023-03-08T13:49:34;10.30;99.90
21627;DHT22;10975;47.872;12.972;2023-03-08T13:51:59;10.30;99.90
21627;DHT22;10975;47.872;12.972;2023-03-08T13:56:59;10.40;99.90
21627;DHT22;10975;47.872;12.972;2023-03-08T13:59:26;10.40;99.90
21627;DHT22;10975;47.872;12.972;2023-03-08T14:01:53;10.40;99.90
21627;DHT22;10975;47.872;12.972;2023-03-08T14:04:21;10.30;99.90
21627;DHT22;10975;47.872;12.972;2023-03-08T14:06:49;10.30;99.90
21627;DHT22;10975;47.872;12.972;2023-03-08T14:09:16;10.30;99.90
21627;DHT22;10975;47.872;12.972;2023-03-08T14:11:43;10.30;99.90
21627;DHT22;10975;47.872;12.972;2023-03-08T14:14:19;10.40;99.90
21627;DHT22;10975;47.872;12.972;2023-03-08T14:16:50;10.60;99.90
21627;DHT22;10975;47.872;12.972;2023-03-08T14:19:24;10.60;99.90
21627;DHT22;10975;47.872;12.972;2023-03-08T14:22:03;10.70;99.90
21627;DHT22;10975;47.872;12.972;2023-03-08T14:24:34;10.80;99.90
21627;DHT22;10975;47.872;12.972;2023-03-08T14:29:29;11.00;99.90
21627;DHT22;10975;47.872;12.972;2023-03-08T14:32:01;11.20;99.90
21627;DHT22;10975;47.872;12.972;2023-03-08T14:34:29;11.40;99.90
21627;DHT22;10975;47.872;12.972;2023-03-08T14:37:00;11.60;99.90
21627;DHT22;10975;47.872;12.972;2023-03-08T14:39:28;11.80;99.90
21627;DHT22;10975;47.872;12.972;2023-03-08T14:41:55;11.80;99.90
21627;DHT22;10975;47.872;12.972;2023-03-08T14:44:23;11.80;99.90
21627;DHT22;10975;47.872;12.972;2023-03-08T14:46:50;11.70;99.90
21627;DHT22;10975;47.872;12.972;2023-03-08T14:49:27;11.70;99.90
21627;DHT22;10975;47.872;12.972;2023-03-08T14:51:54;11.60;99.90
21627;DHT22;10975;47.872;12.972;2023-03-08T14:56:54;11.40;99.90
21627;DHT22;10975;47.872;12.972;2023-03-08T14:59:21;11.40;99.90
21627;DHT22;10975;47.872;12.972;2023-03-08T15:01:53;11.30;99.90
21627;DHT22;10975;47.872;12.972;2023-03-08T15:04:21;11.30;99.90
21627;DHT22;10975;47.872;12.972;2023-03-08T15:06:49;11.30;99.90
21627;DHT22;10975;47.872;12.972;2023-03-08T15:09:17;11.30;99.90
21627;DHT22;10975;47.872;12.972;2023-03-08T15:11:45;11.40;99.90
21627;DHT22;10975;47.872;12.972;2023-03-08T15:14:12;11.30;99.90
21627;DHT22;10975;47.872;12.972;2023-03-08T15:16:39;11.30;99.90
21627;DHT22;10975;47.872;12.972;2023-03-08T15:19:06;11.30;99.90
21627;DHT22;10975;47.872;12.972;2023-03-08T15:21:34;11.30;99.90
21627;DHT22;10975;47.872;12.972;2023-03-08T15:24:01;11.30;99.90
21627;DHT22;10975;47.872;12.972;2023-03-08T15:26:29;11.30;99.90
21627;DHT22;10975;47.872;12.972;2023-03-08T15:28:59;11.30;99.90
21627;DHT22;10975;47.872;12.972;2023-03-08T15:31:29;11.40;99.90
21627;DHT22;10975;47.872;12.972;2023-03-08T15:33:56;11.40;99.90
21627;DHT22;10975;47.872;12.972;2023-03-08T15:36:23;11.30;99.90
21627;DHT22;10975;47.872;12.972;2023-03-08T15:38:50;11.30;99.90
21627;DHT22;10975;47.872;12.972;2023-03-08T15:41:16;11.20;99.90
21627;DHT22;10975;47.872;12.972;2023-03-08T15:43:43;11.20;99.90
21627;DHT22;10975;47.872;12.972;2023-03-08T15:46:11;11.20;99.90
21627;DHT22;10975;47.872;12.972;2023-03-08T15:48:38;11.10;99.90
21627;DHT22;10975;47.872;12.972;2023-03-08T15:51:04;11.20;99.90
21627;DHT22;10975;47.872;12.972;2023-03-08T15:53:31;11.10;99.90
21627;DHT22;10975;47.872;12.972;2023-03-08T15:56:01;11.00;99.90
21627;DHT22;10975;47.872;12.972;2023-03-08T15:58:28;10.90;99.90
21627;DHT22;10975;47.872;12.972;2023-03-08T16:00:55;10.80;99.90
21627;DHT22;10975;47.872;12.972;2023-03-08T16:03:22;10.70;99.90
21627;DHT22;10975;47.872;12.972;2023-03-08T16:05:56;10.70;99.90
21627;DHT22;10975;47.872;12.972;2023-03-08T16:08:24;10.60;99.90
21627;DHT22;10975;47.872;12.972;2023-03-08T16:10:53;10.70;99.90
21627;DHT22;10975;47.872;12.972;2023-03-08T16:13:20;10.80;99.90
21627;DHT22;10975;47.872;12.972;2023-03-08T16:15:50;10.80;99.90
21627;DHT22;10975;47.872;12.972;2023-03-08T16:18:17;10.80;99.90
21627;DHT22;10975;47.872;12.972;2023-03-08T16:20:46;10.70;99.90
21627;DHT22;10975;47.872;12.972;2023-03-08T16:23:32;10.60;99.90
21627;DHT22;10975;47.872;12.972;2023-03-08T16:26:03;10.50;99.90
21627;DHT22;10975;47.872;12.972;2023-03-08T16:28:41;10.50;99.90
21627;DHT22;10975;47.872;12.972;2023-03-08T16:31:09;10.40;99.90
21627;DHT22;10975;47.872;12.972;2023-03-08T16:33:35;10.40;99.90
21627;DHT22;10975;47.872;12.972;2023-03-08T16:36:02;10.30;99.90
21627;DHT22;10975;47.872;12.972;2023-03-08T16:38:29;10.30;99.90
21627;DHT22;10975;47.872;12.972;2023-03-08T16:41:00;10.30;99.90
21627;DHT22;10975;47.872;12.972;2023-03-08T16:43:38;10.20;99.90
21627;DHT22;10975;47.872;12.972;2023-03-08T16:46:13;10.20;99.90
21627;DHT22;10975;47.872;12.972;2023-03-08T16:48:41;10.10;99.90
21627;DHT22;10975;47.872;12.972;2023-03-08T16:51:09;10.10;99.90
21627;DHT22;10975;47.872;12.972;2023-03-08T16:53:37;10.00;99.90